Time;durP1;ratioP1;P1;durP2;ratioP2;P2;SDS_P1;SDS_P2;PMS_P1;PMS_P2;Temp;Humidity;BMP_temperature;BMP_pressure;BME280_temperature;BME280_humidity;BME280_pressure;Samples;Min_cycle;Max_cycle;Signal;HPM_P1;HPM_P2
2021/07/30 00:02:21;;;;;;;3.10;2.90;;;25.80;65.00;;;;;;5033774;28;20277;-60
2021/07/30 00:04:47;;;;;;;2.92;2.72;;;25.70;65.00;;;;;;5033409;28;20293;-61
2021/07/30 00:07:14;;;;;;;2.58;2.38;;;25.70;64.90;;;;;;5032796;28;20317;-61
2021/07/30 00:09:40;;;;;;;2.95;2.65;;;25.70;64.90;;;;;;5032985;28;20201;-61
2021/07/30 00:12:07;;;;;;;3.17;2.90;;;25.70;64.90;;;;;;5033988;28;20198;-61
2021/07/30 00:14:33;;;;;;;3.10;2.80;;;25.70;64.90;;;;;;5033196;28;20203;-61
2021/07/30 00:17:00;;;;;;;3.00;2.80;;;25.70;64.90;;;;;;5032026;28;20856;-60
2021/07/30 00:19:26;;;;;;;3.03;2.78;;;25.70;64.90;;;;;;5034053;28;20281;-61
2021/07/30 00:21:53;;;;;;;2.75;2.55;;;25.70;64.90;;;;;;5032152;28;20298;-61
2021/07/30 00:24:19;;;;;;;3.17;2.88;;;25.70;65.00;;;;;;5034201;28;20198;-61
2021/07/30 00:26:46;;;;;;;3.38;2.53;;;25.70;65.00;;;;;;5032481;28;20302;-61
2021/07/30 00:29:12;;;;;;;2.95;2.75;;;25.70;64.90;;;;;;5033590;28;20349;-61
2021/07/30 00:31:38;;;;;;;2.60;2.40;;;25.70;65.00;;;;;;5032720;28;20646;-61
2021/07/30 00:34:05;;;;;;;2.97;2.67;;;25.70;64.90;;;;;;5033089;28;20277;-62
2021/07/30 00:36:31;;;;;;;2.63;2.42;;;25.70;64.90;;;;;;5031759;28;20226;-61
2021/07/30 00:38:58;;;;;;;2.70;2.50;;;25.70;64.90;;;;;;5033449;28;20206;-61
2021/07/30 00:41:25;;;;;;;2.90;2.70;;;25.70;64.90;;;;;;5031891;28;20210;-62
2021/07/30 00:43:51;;;;;;;3.00;2.80;;;25.70;64.90;;;;;;5030060;28;20216;-62
2021/07/30 00:46:18;;;;;;;2.78;2.58;;;25.70;64.90;;;;;;5032003;28;20313;-62
2021/07/30 00:48:44;;;;;;;3.53;2.90;;;25.70;65.00;;;;;;5033580;28;20586;-62
2021/07/30 00:51:11;;;;;;;3.78;2.75;;;25.70;65.00;;;;;;5032303;28;20202;-61
2021/07/30 00:53:37;;;;;;;2.65;2.45;;;25.70;65.00;;;;;;5033299;28;20206;-61
2021/07/30 00:56:03;;;;;;;3.00;2.80;;;25.70;65.00;;;;;;5031327;28;20237;-62
2021/07/30 00:58:30;;;;;;;3.33;3.03;;;25.70;65.00;;;;;;5032934;28;20276;-62
2021/07/30 01:00:56;;;;;;;2.90;2.70;;;25.70;64.90;;;;;;5032941;28;20626;-62
2021/07/30 01:03:23;;;;;;;2.88;2.67;;;25.70;64.90;;;;;;5032636;28;20282;-62
2021/07/30 01:05:49;;;;;;;3.08;2.85;;;25.70;64.90;;;;;;5031602;28;20368;-61
2021/07/30 01:08:16;;;;;;;3.20;2.90;;;25.70;64.90;;;;;;5031153;28;20314;-60
2021/07/30 01:10:42;;;;;;;3.00;2.80;;;25.70;65.60;;;;;;5031954;28;20281;-60
2021/07/30 01:13:09;;;;;;;3.42;3.13;;;25.70;64.90;;;;;;5032324;28;20734;-59
2021/07/30 01:15:35;;;;;;;3.00;2.80;;;25.70;64.90;;;;;;5031241;28;20330;-60
2021/07/30 01:18:02;;;;;;;2.90;2.67;;;25.70;64.90;;;;;;5031750;28;20305;-59
2021/07/30 01:20:28;;;;;;;3.25;2.95;;;25.70;65.00;;;;;;5032776;28;20242;-59
2021/07/30 01:22:54;;;;;;;3.33;2.92;;;25.70;65.00;;;;;;5031367;28;20302;-60
2021/07/30 01:25:21;;;;;;;3.00;2.80;;;25.70;65.00;;;;;;5032725;28;20745;-59
2021/07/30 01:27:47;;;;;;;3.40;3.10;;;25.70;65.00;;;;;;5030688;28;20250;-61
2021/07/30 01:30:14;;;;;;;3.10;2.80;;;25.70;65.00;;;;;;5032262;28;20213;-61
2021/07/30 01:32:40;;;;;;;2.80;2.60;;;25.70;65.00;;;;;;5026032;28;20289;-61
2021/07/30 01:35:07;;;;;;;2.90;2.70;;;25.70;65.00;;;;;;5032321;28;20289;-60
2021/07/30 01:37:33;;;;;;;2.80;2.60;;;25.70;65.00;;;;;;5030760;28;20226;-61
2021/07/30 01:40:00;;;;;;;3.38;3.08;;;25.70;65.00;;;;;;5032587;28;20294;-60
2021/07/30 01:42:26;;;;;;;3.03;2.83;;;25.70;65.00;;;;;;5030352;28;20297;-60
2021/07/30 01:44:53;;;;;;;2.67;2.47;;;25.70;65.00;;;;;;5032694;28;20203;-60
2021/07/30 01:47:20;;;;;;;3.13;2.92;;;25.70;65.00;;;;;;5029215;28;20349;-60
2021/07/30 01:49:46;;;;;;;3.42;3.13;;;25.70;65.00;;;;;;5030878;28;20198;-60
2021/07/30 01:52:13;;;;;;;2.63;2.42;;;25.70;65.00;;;;;;5030380;28;20228;-62
2021/07/30 01:54:39;;;;;;;2.78;2.58;;;25.70;65.00;;;;;;5028616;28;20217;-61
2021/07/30 01:57:06;;;;;;;2.70;2.50;;;25.70;65.00;;;;;;5030616;28;20272;-60
2021/07/30 01:59:32;;;;;;;3.10;2.80;;;25.60;65.10;;;;;;5031052;28;20293;-61
2021/07/30 02:01:58;;;;;;;2.65;2.45;;;25.70;65.20;;;;;;5030728;28;20289;-61
2021/07/30 02:04:25;;;;;;;2.90;2.60;;;25.70;65.20;;;;;;5030603;28;20634;-61
2021/07/30 02:06:51;;;;;;;2.90;2.70;;;25.70;65.20;;;;;;5030213;28;20660;-61
2021/07/30 02:09:18;;;;;;;2.85;2.65;;;25.70;65.30;;;;;;5030039;28;20203;-60
2021/07/30 02:11:50;;;;;;;2.97;2.67;;;25.70;65.30;;;;;;5031165;28;20286;-61
2021/07/30 02:14:15;;;;;;;2.80;2.60;;;25.60;65.20;;;;;;5031826;28;20206;-61
2021/07/30 02:16:42;;;;;;;2.72;2.30;;;25.60;65.20;;;;;;5030070;28;20237;-61
2021/07/30 02:19:09;;;;;;;3.58;2.67;;;25.60;65.20;;;;;;5030715;28;20549;-60
2021/07/30 02:21:35;;;;;;;2.80;2.47;;;25.70;65.30;;;;;;5030838;28;20517;-60
2021/07/30 02:24:01;;;;;;;2.75;2.55;;;25.70;65.20;;;;;;5030480;28;20290;-61
2021/07/30 02:26:28;;;;;;;2.97;2.70;;;25.60;65.20;;;;;;5028870;28;20218;-61
2021/07/30 02:28:54;;;;;;;2.53;2.33;;;25.70;65.30;;;;;;5030546;28;20199;-60
2021/07/30 02:31:21;;;;;;;2.75;2.50;;;25.60;65.30;;;;;;5030595;28;20705;-60
2021/07/30 02:33:47;;;;;;;2.70;2.50;;;25.70;65.30;;;;;;5031106;28;20576;-61
2021/07/30 02:36:14;;;;;;;2.90;2.70;;;25.60;65.30;;;;;;5029766;28;20377;-61
2021/07/30 02:38:40;;;;;;;2.50;2.30;;;25.70;66.00;;;;;;5030095;28;20298;-61
2021/07/30 02:41:07;;;;;;;3.17;2.88;;;25.60;65.30;;;;;;5028826;28;20198;-60
2021/07/30 02:43:33;;;;;;;2.53;2.25;;;25.60;65.40;;;;;;5030449;28;20209;-60
2021/07/30 02:46:00;;;;;;;2.60;2.40;;;25.70;65.30;;;;;;5029397;28;20217;-60
2021/07/30 02:48:26;;;;;;;3.08;2.50;;;25.60;65.30;;;;;;5028503;28;20293;-60
2021/07/30 02:50:53;;;;;;;2.60;2.40;;;25.60;65.30;;;;;;5029178;28;20212;-60
2021/07/30 02:53:19;;;;;;;3.03;2.72;;;25.70;65.40;;;;;;5030111;28;20203;-60
2021/07/30 02:55:46;;;;;;;2.80;2.60;;;25.60;65.30;;;;;;5030444;28;20202;-60
2021/07/30 02:58:13;;;;;;;2.78;2.58;;;25.70;65.40;;;;;;5029875;28;20198;-60
2021/07/30 03:00:39;;;;;;;2.78;2.30;;;25.60;65.30;;;;;;5030254;28;20249;-60
2021/07/30 03:03:05;;;;;;;2.63;2.42;;;25.70;65.40;;;;;;5030039;28;20210;-60
2021/07/30 03:05:32;;;;;;;2.95;2.75;;;25.70;65.40;;;;;;5030398;28;20277;-60
2021/07/30 03:07:58;;;;;;;2.58;2.38;;;25.60;65.30;;;;;;5028846;28;20253;-60
2021/07/30 03:10:25;;;;;;;2.97;2.72;;;25.60;65.30;;;;;;5030071;28;20675;-60
2021/07/30 03:12:51;;;;;;;3.05;2.75;;;25.60;65.40;;;;;;5028940;28;20233;-60
2021/07/30 03:15:18;;;;;;;3.00;2.80;;;25.70;65.40;;;;;;5030902;28;20286;-60
2021/07/30 03:17:44;;;;;;;2.85;2.65;;;25.60;65.30;;;;;;5029247;28;20240;-60
2021/07/30 03:20:11;;;;;;;3.45;2.67;;;25.60;65.30;;;;;;5029671;28;20293;-60
2021/07/30 03:22:37;;;;;;;2.85;2.65;;;25.70;65.40;;;;;;5030453;28;20301;-60
2021/07/30 03:25:04;;;;;;;3.13;2.60;;;25.70;65.30;;;;;;5029930;28;20190;-60
2021/07/30 03:27:30;;;;;;;3.05;2.80;;;25.60;65.30;;;;;;5029466;28;20665;-60
2021/07/30 03:29:57;;;;;;;2.58;2.38;;;25.60;65.40;;;;;;5030458;28;20206;-60
2021/07/30 03:32:23;;;;;;;2.70;2.50;;;25.70;65.40;;;;;;5027103;28;20341;-60
2021/07/30 03:34:49;;;;;;;2.60;2.40;;;25.60;65.30;;;;;;5030642;28;20289;-60
2021/07/30 03:37:16;;;;;;;2.72;2.53;;;25.60;65.30;;;;;;5028685;28;20230;-60
2021/07/30 03:39:42;;;;;;;2.53;2.28;;;25.60;65.30;;;;;;5030383;28;20629;-60
2021/07/30 03:42:09;;;;;;;2.50;2.30;;;25.60;65.30;;;;;;5029871;28;20650;-60
2021/07/30 03:44:35;;;;;;;2.50;2.30;;;25.60;65.30;;;;;;5030166;28;20281;-60
2021/07/30 03:47:02;;;;;;;2.80;2.60;;;25.60;65.40;;;;;;5028820;28;20304;-60
2021/07/30 03:49:28;;;;;;;3.30;3.00;;;25.60;65.40;;;;;;5029430;28;20285;-60
2021/07/30 03:51:55;;;;;;;2.97;2.67;;;25.60;65.30;;;;;;5029052;28;20293;-60
2021/07/30 03:54:21;;;;;;;2.53;2.30;;;25.60;65.40;;;;;;5028798;28;20677;-60
2021/07/30 03:56:48;;;;;;;3.03;2.55;;;25.60;65.40;;;;;;5029199;28;20234;-60
2021/07/30 03:59:14;;;;;;;3.05;2.78;;;25.70;65.50;;;;;;5029589;28;20203;-60
2021/07/30 04:01:40;;;;;;;2.60;2.40;;;25.60;65.40;;;;;;5029295;28;20194;-60
2021/07/30 04:04:07;;;;;;;3.03;2.72;;;25.60;65.40;;;;;;5029991;28;20293;-60
2021/07/30 04:06:33;;;;;;;2.53;2.33;;;25.60;65.30;;;;;;5028654;28;20237;-60
2021/07/30 04:09:01;;;;;;;2.63;2.40;;;25.60;65.30;;;;;;5029567;28;20682;-60
2021/07/30 04:11:27;;;;;;;2.55;2.35;;;25.60;65.40;;;;;;5028500;28;20210;-60
2021/07/30 04:13:54;;;;;;;2.90;2.70;;;25.60;65.30;;;;;;5029117;28;20290;-60
2021/07/30 04:16:20;;;;;;;2.60;2.40;;;25.60;65.30;;;;;;5029539;28;20303;-60
2021/07/30 04:18:46;;;;;;;2.60;2.40;;;25.60;65.40;;;;;;5031569;28;20698;-60
2021/07/30 04:21:13;;;;;;;2.70;2.30;;;25.60;65.40;;;;;;5032936;28;20314;-60
2021/07/30 04:23:39;;;;;;;4.10;2.80;;;25.60;65.40;;;;;;5034032;28;20281;-60
2021/07/30 04:26:06;;;;;;;2.78;2.58;;;25.60;65.30;;;;;;5031927;28;20218;-61
2021/07/30 04:28:32;;;;;;;2.25;2.05;;;25.60;65.30;;;;;;5033472;28;20293;-60
2021/07/30 04:30:59;;;;;;;2.60;2.40;;;25.60;65.30;;;;;;5033092;28;20289;-59
2021/07/30 04:33:25;;;;;;;2.65;2.45;;;25.60;65.30;;;;;;5033442;28;20205;-60
2021/07/30 04:35:52;;;;;;;2.88;2.65;;;25.60;66.00;;;;;;5031886;28;20607;-60
2021/07/30 04:38:18;;;;;;;2.50;2.30;;;25.60;65.30;;;;;;5033279;28;20345;-60
2021/07/30 04:40:44;;;;;;;2.83;2.63;;;25.60;65.40;;;;;;5031833;28;20198;-60
2021/07/30 04:43:11;;;;;;;2.97;2.50;;;25.60;65.30;;;;;;5033090;28;20293;-60
2021/07/30 04:45:38;;;;;;;2.72;2.53;;;25.60;65.30;;;;;;5032154;28;20289;-60
2021/07/30 04:48:04;;;;;;;2.53;2.35;;;25.60;65.30;;;;;;5033689;28;20210;-61
2021/07/30 04:50:31;;;;;;;2.67;2.47;;;25.60;65.30;;;;;;5032169;28;20681;-60
2021/07/30 04:52:57;;;;;;;2.72;2.53;;;25.60;65.30;;;;;;5032521;28;20202;-60
2021/07/30 04:55:24;;;;;;;2.78;2.40;;;25.60;65.30;;;;;;5031744;28;20297;-60
2021/07/30 04:57:51;;;;;;;2.58;2.38;;;25.60;65.30;;;;;;5031556;28;20230;-61
2021/07/30 05:00:17;;;;;;;2.40;2.20;;;25.60;65.20;;;;;;5032053;28;20634;-60
2021/07/30 05:02:44;;;;;;;2.67;2.42;;;25.60;65.30;;;;;;5032196;28;20207;-60
2021/07/30 05:05:10;;;;;;;2.55;2.35;;;25.60;65.30;;;;;;5032173;28;20208;-60
2021/07/30 05:07:37;;;;;;;2.65;2.45;;;25.60;65.30;;;;;;5032259;28;20229;-60
2021/07/30 05:10:03;;;;;;;2.50;2.28;;;25.60;65.30;;;;;;5031477;28;20289;-60
2021/07/30 05:12:30;;;;;;;2.70;2.50;;;25.60;65.30;;;;;;5031688;28;20226;-60
2021/07/30 05:14:56;;;;;;;2.60;2.40;;;25.60;65.30;;;;;;5031839;28;20205;-60
2021/07/30 05:17:22;;;;;;;2.53;2.33;;;25.60;65.30;;;;;;5032223;28;20292;-60
2021/07/30 05:19:49;;;;;;;2.80;2.60;;;25.60;65.30;;;;;;5021667;28;20277;-60
2021/07/30 05:22:16;;;;;;;2.72;2.50;;;25.60;65.30;;;;;;5031824;28;20293;-60
2021/07/30 05:24:42;;;;;;;4.57;2.50;;;25.60;65.30;;;;;;5032031;28;20248;-60
2021/07/30 05:27:09;;;;;;;4.13;2.30;;;25.60;65.30;;;;;;5031929;28;20317;-60
2021/07/30 05:29:35;;;;;;;2.63;2.42;;;25.60;65.30;;;;;;5030630;28;20202;-60
2021/07/30 05:32:02;;;;;;;2.42;2.22;;;25.60;65.30;;;;;;5013797;28;20668;-60
2021/07/30 05:34:29;;;;;;;2.80;2.60;;;25.60;65.30;;;;;;5025822;28;20234;-60
2021/07/30 05:36:56;;;;;;;2.45;2.28;;;25.60;65.30;;;;;;5031416;28;20309;-60
2021/07/30 05:39:22;;;;;;;2.70;2.50;;;25.60;65.30;;;;;;5032424;28;20310;-60
2021/07/30 05:41:49;;;;;;;2.50;2.30;;;25.60;65.50;;;;;;5031305;28;20202;-59
2021/07/30 05:44:15;;;;;;;3.45;2.78;;;25.60;65.50;;;;;;5032505;28;20294;-60
2021/07/30 05:46:42;;;;;;;2.22;2.03;;;25.60;65.50;;;;;;5031251;28;20313;-60
2021/07/30 05:49:08;;;;;;;2.83;2.60;;;25.60;65.50;;;;;;5032486;28;20282;-60
2021/07/30 05:51:35;;;;;;;2.80;2.60;;;25.60;65.50;;;;;;5029797;28;20651;-60
2021/07/30 05:54:01;;;;;;;2.50;2.30;;;25.60;65.50;;;;;;5031348;28;20734;-60
2021/07/30 05:56:28;;;;;;;3.25;2.95;;;25.60;65.50;;;;;;5030142;28;20317;-60
2021/07/30 05:58:54;;;;;;;2.38;2.17;;;25.60;65.60;;;;;;5030412;28;20289;-61
2021/07/30 06:01:20;;;;;;;2.70;2.50;;;25.60;65.50;;;;;;5031268;28;20198;-60
2021/07/30 06:03:47;;;;;;;2.78;2.58;;;25.60;65.50;;;;;;5031309;28;20298;-60
2021/07/30 06:06:13;;;;;;;2.95;2.10;;;25.60;65.50;;;;;;5030518;28;20237;-60
2021/07/30 06:08:40;;;;;;;2.92;2.60;;;25.60;65.50;;;;;;5031235;28;20730;-60
2021/07/30 06:11:06;;;;;;;2.83;2.60;;;25.60;65.50;;;;;;5031439;28;20655;-60
2021/07/30 06:13:33;;;;;;;2.60;2.40;;;25.70;65.50;;;;;;5031238;28;20640;-60
2021/07/30 06:15:59;;;;;;;2.58;2.38;;;25.70;65.50;;;;;;5029354;28;20235;-60
2021/07/30 06:18:26;;;;;;;2.78;2.53;;;25.60;65.60;;;;;;5031116;28;20244;-60
2021/07/30 06:20:52;;;;;;;2.40;2.20;;;25.60;65.50;;;;;;5031431;28;20217;-60
2021/07/30 06:23:19;;;;;;;2.88;2.40;;;25.60;65.50;;;;;;5030665;28;20293;-60
2021/07/30 06:25:45;;;;;;;2.33;2.13;;;25.60;65.50;;;;;;5029727;28;20301;-60
2021/07/30 06:28:11;;;;;;;2.90;2.70;;;25.60;65.50;;;;;;5030627;28;20281;-61
2021/07/30 06:30:38;;;;;;;2.40;2.20;;;25.70;65.50;;;;;;5029231;28;20655;-60
2021/07/30 06:33:04;;;;;;;2.50;2.22;;;25.60;65.50;;;;;;5030734;28;20619;-60
2021/07/30 06:35:31;;;;;;;2.42;2.22;;;25.60;65.50;;;;;;5030746;28;20248;-60
2021/07/30 06:37:57;;;;;;;2.30;2.10;;;25.70;65.50;;;;;;5019009;28;20222;-63
2021/07/30 06:40:24;;;;;;;2.60;2.40;;;25.70;65.50;;;;;;5027774;28;20206;-67
2021/07/30 06:42:50;;;;;;;4.53;2.67;;;25.60;65.50;;;;;;5027185;28;20205;-59
2021/07/30 06:45:17;;;;;;;3.40;2.47;;;25.70;65.60;;;;;;5031738;28;20397;-61
2021/07/30 06:47:43;;;;;;;3.72;2.38;;;25.70;65.50;;;;;;5029554;28;20730;-59
2021/07/30 06:50:09;;;;;;;2.53;2.30;;;25.70;65.60;;;;;;5031067;28;20623;-60
2021/07/30 06:52:36;;;;;;;3.42;2.72;;;25.70;65.60;;;;;;5028424;28;20358;-61
2021/07/30 06:55:02;;;;;;;3.20;2.58;;;25.70;65.80;;;;;;5024046;28;20282;-64
2021/07/30 06:57:29;;;;;;;3.15;2.67;;;25.80;66.00;;;;;;5025762;28;20236;-61
2021/07/30 06:59:57;;;;;;;8.05;3.60;;;25.70;66.60;;;;;;5032203;28;20253;-67
2021/07/30 07:02:23;;;;;;;7.15;3.42;;;25.80;67.50;;;;;;5032175;28;20720;-62
2021/07/30 07:04:50;;;;;;;4.95;3.30;;;25.80;67.40;;;;;;5034440;28;20221;-63
2021/07/30 07:07:16;;;;;;;6.43;3.17;;;25.80;67.70;;;;;;5030795;28;20320;-59
2021/07/30 07:09:43;;;;;;;6.30;2.95;;;25.80;68.00;;;;;;5030318;28;20291;-59
2021/07/30 07:12:09;;;;;;;7.55;3.35;;;25.80;67.80;;;;;;5041809;28;20253;-61
2021/07/30 07:14:36;;;;;;;6.45;3.60;;;25.80;67.60;;;;;;5035776;28;20204;-66
2021/07/30 07:17:02;;;;;;;9.38;3.97;;;25.80;67.50;;;;;;5039079;28;20745;-60
2021/07/30 07:19:29;;;;;;;9.25;4.30;;;25.80;67.90;;;;;;5037454;28;20561;-63
2021/07/30 07:21:55;;;;;;;9.80;4.65;;;25.80;67.90;;;;;;5029847;28;20228;-65
2021/07/30 07:24:22;;;;;;;9.68;6.30;;;25.80;68.70;;;;;;5045265;28;20213;-65
2021/07/30 07:26:48;;;;;;;9.65;6.22;;;25.20;65.00;;;;;;5029991;28;20222;-64
2021/07/30 07:29:14;;;;;;;8.52;5.07;;;25.00;66.20;;;;;;5028086;28;20285;-64
2021/07/30 07:31:44;;;;;;;5.63;4.80;;;25.20;68.00;;;;;;5027371;28;20289;-65
2021/07/30 07:34:11;;;;;;;11.90;5.28;;;25.30;67.20;;;;;;5027376;28;20675;-65
2021/07/30 07:36:37;;;;;;;9.43;5.22;;;25.40;68.10;;;;;;5029323;28;20248;-65
2021/07/30 07:39:03;;;;;;;6.05;4.80;;;25.50;67.30;;;;;;5044338;28;20268;-65
2021/07/30 07:41:30;;;;;;;6.05;4.82;;;25.60;67.10;;;;;;5027541;28;20202;-65
2021/07/30 07:43:57;;;;;;;8.38;4.85;;;25.60;67.00;;;;;;5028725;28;20268;-64
2021/07/30 07:46:23;;;;;;;7.95;4.90;;;25.60;67.30;;;;;;5028581;28;21469;-65
2021/07/30 07:48:50;;;;;;;5.85;4.50;;;25.60;67.90;;;;;;5044960;28;20292;-64
2021/07/30 07:51:16;;;;;;;6.80;4.78;;;25.60;68.00;;;;;;5034166;28;20210;-77
2021/07/30 07:53:42;;;;;;;5.55;4.50;;;25.60;68.00;;;;;;5041978;28;20212;-67
2021/07/30 07:56:10;;;;;;;5.75;4.63;;;25.70;67.90;;;;;;5031990;28;20749;-71
2021/07/30 07:58:37;;;;;;;6.25;3.78;;;25.70;67.90;;;;;;5035538;28;20234;-63
2021/07/30 08:01:03;;;;;;;5.18;4.68;;;25.70;67.80;;;;;;5031083;28;20202;-70
2021/07/30 08:03:30;;;;;;;6.82;4.65;;;25.70;67.90;;;;;;5032778;28;20674;-70
2021/07/30 08:05:56;;;;;;;6.30;5.70;;;25.80;67.90;;;;;;5033537;28;20658;-63
2021/07/30 08:08:23;;;;;;;6.40;4.78;;;25.70;67.60;;;;;;5042525;28;20210;-63
2021/07/30 08:10:49;;;;;;;7.20;5.47;;;25.70;67.50;;;;;;5010640;28;20253;-64
2021/07/30 08:13:16;;;;;;;7.43;4.55;;;25.70;67.50;;;;;;5024046;28;20199;-70
2021/07/30 08:15:43;;;;;;;4.95;4.50;;;25.70;67.40;;;;;;5029645;28;20599;-70
2021/07/30 08:18:09;;;;;;;5.57;4.88;;;25.80;66.70;;;;;;5033458;28;20232;-66
2021/07/30 08:20:36;;;;;;;6.22;4.57;;;25.80;66.60;;;;;;5033912;28;20242;-69
2021/07/30 08:23:02;;;;;;;5.45;4.95;;;25.80;66.90;;;;;;5029898;28;20206;-66
2021/07/30 08:25:29;;;;;;;5.90;4.85;;;25.80;67.50;;;;;;5031578;28;20788;-68
2021/07/30 08:27:55;;;;;;;5.60;4.85;;;25.80;67.00;;;;;;5033036;28;20245;-68
2021/07/30 08:30:22;;;;;;;7.03;5.07;;;25.80;66.80;;;;;;5029596;28;20286;-68
2021/07/30 08:32:48;;;;;;;6.10;4.72;;;25.80;67.00;;;;;;5027338;28;20290;-68
2021/07/30 08:35:15;;;;;;;5.43;4.93;;;25.80;67.50;;;;;;5031503;28;20652;-67
2021/07/30 08:37:42;;;;;;;5.07;4.57;;;25.80;67.40;;;;;;5043304;28;20279;-65
2021/07/30 08:40:08;;;;;;;5.07;4.53;;;25.80;67.50;;;;;;5024897;28;20214;-65
2021/07/30 08:42:35;;;;;;;6.15;5.15;;;25.80;67.50;;;;;;5033109;28;20211;-65
2021/07/30 08:45:01;;;;;;;5.55;5.00;;;25.80;67.60;;;;;;5029803;28;20254;-65
2021/07/30 08:47:28;;;;;;;4.70;4.30;;;25.80;67.90;;;;;;5030022;28;20208;-65
2021/07/30 08:49:54;;;;;;;5.10;4.63;;;25.80;67.80;;;;;;5031768;28;20703;-65
2021/07/30 08:52:21;;;;;;;5.25;4.75;;;25.80;67.90;;;;;;5029783;28;20224;-66
2021/07/30 08:54:47;;;;;;;5.20;4.30;;;25.80;68.10;;;;;;5032657;28;20258;-64
2021/07/30 08:57:14;;;;;;;5.68;4.40;;;25.80;68.10;;;;;;5031184;28;20234;-64
2021/07/30 08:59:41;;;;;;;7.13;5.13;;;25.80;68.20;;;;;;5029925;28;20758;-64
2021/07/30 09:02:07;;;;;;;5.40;4.90;;;25.80;67.90;;;;;;5030001;28;20203;-68
2021/07/30 09:04:35;;;;;;;6.05;5.45;;;25.80;67.60;;;;;;5031711;28;20305;-75
2021/07/30 09:07:02;;;;;;;5.95;4.97;;;25.80;68.10;;;;;;5026138;28;20675;-64
2021/07/30 09:09:29;;;;;;;5.53;5.03;;;25.80;68.30;;;;;;5029367;28;20213;-64
2021/07/30 09:11:56;;;;;;;5.13;4.63;;;25.80;68.00;;;;;;5031913;28;20253;-63
2021/07/30 09:14:22;;;;;;;6.70;5.03;;;25.80;67.70;;;;;;5031227;28;20301;-60
2021/07/30 09:16:49;;;;;;;6.30;5.70;;;25.80;68.30;;;;;;5031184;28;20293;-63
2021/07/30 09:19:15;;;;;;;5.63;4.97;;;25.90;69.70;;;;;;5030343;28;20226;-62
2021/07/30 09:21:41;;;;;;;6.93;5.70;;;25.90;68.40;;;;;;5044242;28;20225;-63
2021/07/30 09:24:08;;;;;;;5.40;4.82;;;25.80;69.40;;;;;;5041219;28;20197;-60
2021/07/30 09:26:34;;;;;;;5.60;5.03;;;25.80;69.10;;;;;;5030255;28;20202;-59
2021/07/30 09:29:01;;;;;;;5.13;4.25;;;25.90;68.60;;;;;;5037977;28;20300;-58
2021/07/30 09:31:27;;;;;;;6.45;5.10;;;25.90;68.10;;;;;;5043939;28;20202;-58
2021/07/30 09:33:59;;;;;;;5.72;4.45;;;25.90;68.00;;;;;;5016159;28;20294;-58
2021/07/30 09:36:25;;;;;;;4.80;4.40;;;25.90;67.80;;;;;;5024679;28;20253;-58
2021/07/30 09:38:52;;;;;;;5.40;4.90;;;25.90;67.80;;;;;;5032297;28;20265;-58
2021/07/30 09:41:18;;;;;;;5.38;4.88;;;25.90;67.80;;;;;;5029983;28;20289;-57
2021/07/30 09:43:45;;;;;;;5.90;4.85;;;25.90;68.00;;;;;;5023904;28;20202;-58
2021/07/30 09:46:11;;;;;;;5.45;4.80;;;25.80;67.90;;;;;;5033598;28;20670;-61
2021/07/30 09:48:38;;;;;;;5.35;4.85;;;25.90;68.50;;;;;;5036515;28;20526;-59
2021/07/30 09:51:04;;;;;;;6.00;5.15;;;25.90;68.60;;;;;;5029457;28;20286;-58
2021/07/30 09:53:31;;;;;;;6.43;4.72;;;25.90;69.00;;;;;;5033392;28;20209;-60
2021/07/30 09:55:58;;;;;;;7.85;6.10;;;25.90;68.30;;;;;;5040373;28;20311;-64
2021/07/30 09:58:24;;;;;;;7.03;5.88;;;25.80;64.50;;;;;;5030013;28;20239;-58
2021/07/30 10:00:50;;;;;;;5.88;5.15;;;25.70;64.60;;;;;;5032271;28;20206;-59
2021/07/30 10:03:17;;;;;;;6.43;5.82;;;25.70;65.50;;;;;;5030615;28;20201;-59
2021/07/30 10:05:43;;;;;;;5.38;4.88;;;25.80;65.70;;;;;;5029352;28;20305;-59
2021/07/30 10:08:10;;;;;;;5.43;4.93;;;25.80;66.00;;;;;;5023348;28;20218;-58
2021/07/30 10:10:39;;;;;;;5.45;4.85;;;25.80;66.10;;;;;;5028069;28;20206;-58
2021/07/30 10:13:12;;;;;;;5.93;4.90;;;25.90;66.40;;;;;;5029962;28;20237;-59
2021/07/30 10:15:39;;;;;;;5.53;4.90;;;25.90;66.50;;;;;;5029574;28;20218;-59
2021/07/30 10:18:05;;;;;;;5.70;5.20;;;25.90;66.60;;;;;;5030851;28;20349;-58
2021/07/30 10:20:32;;;;;;;5.78;4.88;;;25.90;66.80;;;;;;5030689;28;20216;-59
2021/07/30 10:22:59;;;;;;;5.15;4.63;;;25.90;66.80;;;;;;5028069;28;20290;-59
2021/07/30 10:25:25;;;;;;;6.53;5.13;;;25.90;66.80;;;;;;5028237;28;20228;-58
2021/07/30 10:27:51;;;;;;;5.80;5.10;;;25.90;66.80;;;;;;5026917;28;20249;-58
2021/07/30 10:30:18;;;;;;;5.38;4.88;;;25.90;66.80;;;;;;5030110;28;20611;-58
2021/07/30 10:32:44;;;;;;;4.93;4.53;;;25.90;66.70;;;;;;5029864;28;20317;-58
2021/07/30 10:35:11;;;;;;;5.05;4.65;;;25.90;66.80;;;;;;5029712;28;20227;-58
2021/07/30 10:37:37;;;;;;;7.10;5.22;;;25.90;66.80;;;;;;5030318;28;20218;-58
2021/07/30 10:40:04;;;;;;;5.88;5.25;;;25.90;66.60;;;;;;5024776;28;20229;-59
2021/07/30 10:42:30;;;;;;;5.70;5.20;;;25.90;66.70;;;;;;5015935;28;20705;-59
2021/07/30 10:44:57;;;;;;;5.68;5.05;;;25.90;66.90;;;;;;5024715;28;20586;-58
2021/07/30 10:47:23;;;;;;;6.00;5.13;;;25.90;67.10;;;;;;5030372;28;20529;-58
2021/07/30 10:49:50;;;;;;;4.97;4.57;;;25.90;66.60;;;;;;5029879;28;20289;-58
2021/07/30 10:52:16;;;;;;;5.38;4.88;;;25.90;66.70;;;;;;5030303;28;20208;-58
2021/07/30 10:54:42;;;;;;;4.80;4.40;;;25.90;66.60;;;;;;5027161;28;20246;-59
2021/07/30 10:57:09;;;;;;;4.97;4.35;;;25.90;66.70;;;;;;5030129;28;20638;-58
2021/07/30 10:59:35;;;;;;;5.00;4.60;;;26.00;66.80;;;;;;5030922;28;20317;-60
2021/07/30 11:02:02;;;;;;;5.50;5.00;;;25.90;66.70;;;;;;5030304;28;20237;-60
2021/07/30 11:04:28;;;;;;;5.75;5.20;;;25.90;66.70;;;;;;5028066;28;20245;-57
2021/07/30 11:06:55;;;;;;;5.30;4.75;;;25.90;66.50;;;;;;5027233;28;20206;-57
2021/07/30 11:09:21;;;;;;;6.38;5.15;;;25.90;66.50;;;;;;5030394;28;20213;-57
2021/07/30 11:11:49;;;;;;;5.57;4.65;;;25.90;66.60;;;;;;5030478;28;20297;-58
2021/07/30 11:14:15;;;;;;;5.53;5.05;;;25.90;66.60;;;;;;5019766;28;20318;-57
2021/07/30 11:16:42;;;;;;;6.90;5.35;;;25.90;66.60;;;;;;5008764;28;20759;-57
2021/07/30 11:19:08;;;;;;;6.05;5.47;;;26.00;66.70;;;;;;5022938;28;20320;-58
2021/07/30 11:21:35;;;;;;;5.47;4.97;;;25.90;66.60;;;;;;5030046;28;20305;-57
2021/07/30 11:24:01;;;;;;;6.30;5.10;;;25.90;66.70;;;;;;5028872;28;20310;-57
2021/07/30 11:26:27;;;;;;;4.85;4.40;;;25.90;66.70;;;;;;5029682;28;20230;-58
2021/07/30 11:28:54;;;;;;;5.90;5.30;;;25.90;66.60;;;;;;5027662;28;20203;-57
2021/07/30 11:31:20;;;;;;;5.85;5.30;;;25.90;66.60;;;;;;5026593;28;20658;-57
2021/07/30 11:33:47;;;;;;;6.18;5.60;;;25.90;66.50;;;;;;5028866;28;20607;-57
2021/07/30 11:36:13;;;;;;;10.32;5.13;;;25.90;66.60;;;;;;5028077;28;20373;-57
2021/07/30 11:38:40;;;;;;;6.53;4.88;;;25.90;66.60;;;;;;5030112;28;20233;-57
2021/07/30 11:41:06;;;;;;;5.65;4.82;;;25.90;67.20;;;;;;5028528;28;20220;-57
2021/07/30 11:43:33;;;;;;;5.18;4.75;;;25.90;66.50;;;;;;5029454;28;20472;-57
2021/07/30 11:45:59;;;;;;;5.25;4.70;;;25.90;66.50;;;;;;5025403;28;20826;-57
2021/07/30 11:48:26;;;;;;;5.80;4.95;;;25.90;66.40;;;;;;5028135;28;20642;-57
2021/07/30 11:50:52;;;;;;;5.07;4.68;;;25.90;66.40;;;;;;5026916;28;20563;-57
2021/07/30 11:53:19;;;;;;;5.18;4.55;;;25.90;66.50;;;;;;5024619;28;20313;-57
2021/07/30 11:55:45;;;;;;;5.70;5.20;;;26.00;66.60;;;;;;5024807;28;20225;-57
2021/07/30 11:58:12;;;;;;;5.18;4.68;;;25.90;66.50;;;;;;5027473;28;20206;-57
2021/07/30 12:00:38;;;;;;;5.43;4.65;;;25.90;66.50;;;;;;5028047;28;20199;-57
2021/07/30 12:03:05;;;;;;;4.97;4.57;;;26.00;66.60;;;;;;5026621;28;20202;-57
2021/07/30 12:05:31;;;;;;;6.18;5.20;;;25.90;66.40;;;;;;5020857;28;20203;-58
2021/07/30 12:07:58;;;;;;;4.97;4.57;;;25.90;66.50;;;;;;5029033;28;20644;-59
2021/07/30 12:10:25;;;;;;;5.28;4.88;;;25.90;66.50;;;;;;5029917;28;20631;-58
2021/07/30 12:12:51;;;;;;;5.30;4.90;;;25.90;66.40;;;;;;5030391;28;20561;-58
2021/07/30 12:15:18;;;;;;;5.15;4.65;;;25.90;66.40;;;;;;5029398;28;20203;-58
2021/07/30 12:17:45;;;;;;;4.88;4.43;;;26.00;66.50;;;;;;5029388;28;20256;-58
2021/07/30 12:20:13;;;;;;;5.25;4.75;;;26.00;66.50;;;;;;5029632;28;20230;-58
2021/07/30 12:22:39;;;;;;;8.65;5.05;;;26.00;66.50;;;;;;5028598;28;20260;-58
2021/07/30 12:25:06;;;;;;;9.10;5.40;;;26.00;66.50;;;;;;5027740;28;20222;-58
2021/07/30 12:27:32;;;;;;;9.23;5.38;;;25.90;66.40;;;;;;5025461;28;20199;-59
2021/07/30 12:29:59;;;;;;;6.97;4.82;;;26.00;66.50;;;;;;5028886;28;20293;-59
2021/07/30 12:32:25;;;;;;;6.70;4.97;;;26.00;66.70;;;;;;5053290;23;20230;-62
2021/07/30 12:34:52;;;;;;;6.70;5.53;;;26.00;66.60;;;;;;5036717;28;20222;-62
2021/07/30 12:37:18;;;;;;;7.15;5.35;;;26.00;66.60;;;;;;5029500;28;20199;-63
2021/07/30 12:39:46;;;;;;;6.18;5.30;;;26.00;66.60;;;;;;5030749;28;20327;-63
2021/07/30 12:42:12;;;;;;;5.97;5.38;;;26.00;66.70;;;;;;5031721;28;20211;-63
2021/07/30 12:44:39;;;;;;;6.60;5.07;;;26.00;66.80;;;;;;5032241;28;20222;-63